sensor_id;sensor_type;location;lat;lon;timestamp;P1;durP1;ratioP1;P2;durP2;ratioP2
20369;SDS011;10344;47.592;9.600;2023-02-28T00:01:09;6.40;;;5.80;;
20369;SDS011;10344;47.592;9.600;2023-02-28T00:03:36;6.22;;;5.55;;
20369;SDS011;10344;47.592;9.600;2023-02-28T00:06:05;6.50;;;5.88;;
20369;SDS011;10344;47.592;9.600;2023-02-28T00:08:31;6.43;;;5.82;;
20369;SDS011;10344;47.592;9.600;2023-02-28T00:11:03;6.53;;;5.93;;
20369;SDS011;10344;47.592;9.600;2023-02-28T00:13:46;6.68;;;5.85;;
20369;SDS011;10344;47.592;9.600;2023-02-28T00:16:13;6.53;;;5.93;;
20369;SDS011;10344;47.592;9.600;2023-02-28T00:18:40;6.10;;;5.50;;
20369;SDS011;10344;47.592;9.600;2023-02-28T00:21:06;6.22;;;5.63;;
20369;SDS011;10344;47.592;9.600;2023-02-28T00:23:32;6.50;;;5.90;;
20369;SDS011;10344;47.592;9.600;2023-02-28T00:25:58;7.13;;;6.43;;
20369;SDS011;10344;47.592;9.600;2023-02-28T00:28:24;7.13;;;6.43;;
20369;SDS011;10344;47.592;9.600;2023-02-28T00:30:50;6.40;;;5.80;;
20369;SDS011;10344;47.592;9.600;2023-02-28T00:33:16;6.40;;;5.80;;
20369;SDS011;10344;47.592;9.600;2023-02-28T00:35:44;6.40;;;5.80;;
20369;SDS011;10344;47.592;9.600;2023-02-28T00:38:12;7.47;;;6.35;;
20369;SDS011;10344;47.592;9.600;2023-02-28T00:40:38;6.45;;;5.85;;
20369;SDS011;10344;47.592;9.600;2023-02-28T00:43:04;6.60;;;6.00;;
20369;SDS011;10344;47.592;9.600;2023-02-28T00:45:30;6.50;;;5.90;;
20369;SDS011;10344;47.592;9.600;2023-02-28T00:47:56;6.57;;;5.97;;
20369;SDS011;10344;47.592;9.600;2023-02-28T00:50:21;6.75;;;5.70;;
20369;SDS011;10344;47.592;9.600;2023-02-28T00:52:48;6.33;;;5.73;;
20369;SDS011;10344;47.592;9.600;2023-02-28T00:55:14;7.43;;;6.10;;
20369;SDS011;10344;47.592;9.600;2023-02-28T00:57:39;6.85;;;6.25;;
20369;SDS011;10344;47.592;9.600;2023-02-28T01:00:05;6.70;;;6.00;;
20369;SDS011;10344;47.592;9.600;2023-02-28T01:02:32;6.53;;;5.93;;
20369;SDS011;10344;47.592;9.600;2023-02-28T01:05:01;6.70;;;6.10;;
20369;SDS011;10344;47.592;9.600;2023-02-28T01:07:28;6.45;;;5.45;;
20369;SDS011;10344;47.592;9.600;2023-02-28T01:09:53;6.38;;;5.70;;
20369;SDS011;10344;47.592;9.600;2023-02-28T01:12:19;6.03;;;5.43;;
20369;SDS011;10344;47.592;9.600;2023-02-28T01:14:46;7.22;;;6.53;;
20369;SDS011;10344;47.592;9.600;2023-02-28T01:17:14;6.70;;;6.05;;
20369;SDS011;10344;47.592;9.600;2023-02-28T01:19:39;6.68;;;5.93;;
20369;SDS011;10344;47.592;9.600;2023-02-28T01:22:09;5.87;;;5.30;;
20369;SDS011;10344;47.592;9.600;2023-02-28T01:24:37;7.55;;;5.95;;
20369;SDS011;10344;47.592;9.600;2023-02-28T01:27:02;6.40;;;5.80;;
20369;SDS011;10344;47.592;9.600;2023-02-28T01:29:28;6.10;;;5.53;;
20369;SDS011;10344;47.592;9.600;2023-02-28T01:31:54;6.20;;;5.60;;
20369;SDS011;10344;47.592;9.600;2023-02-28T01:34:25;7.20;;;5.88;;
20369;SDS011;10344;47.592;9.600;2023-02-28T01:36:50;5.80;;;5.30;;
20369;SDS011;10344;47.592;9.600;2023-02-28T01:39:16;6.10;;;5.50;;
20369;SDS011;10344;47.592;9.600;2023-02-28T01:41:42;6.00;;;5.50;;
20369;SDS011;10344;47.592;9.600;2023-02-28T01:47:14;6.43;;;5.82;;
20369;SDS011;10344;47.592;9.600;2023-02-28T01:49:40;6.15;;;5.55;;
20369;SDS011;10344;47.592;9.600;2023-02-28T01:52:06;5.53;;;5.03;;
20369;SDS011;10344;47.592;9.600;2023-02-28T01:54:43;6.03;;;5.43;;
20369;SDS011;10344;47.592;9.600;2023-02-28T01:57:17;6.20;;;5.60;;
20369;SDS011;10344;47.592;9.600;2023-02-28T01:59:52;6.47;;;5.68;;
20369;SDS011;10344;47.592;9.600;2023-02-28T02:02:19;6.15;;;5.55;;
20369;SDS011;10344;47.592;9.600;2023-02-28T02:07:45;5.97;;;5.43;;
20369;SDS011;10344;47.592;9.600;2023-02-28T02:10:23;6.25;;;5.65;;
20369;SDS011;10344;47.592;9.600;2023-02-28T02:30:27;6.55;;;5.82;;
20369;SDS011;10344;47.592;9.600;2023-02-28T02:41:54;5.93;;;5.30;;
20369;SDS011;10344;47.592;9.600;2023-02-28T02:44:50;6.30;;;5.70;;
20369;SDS011;10344;47.592;9.600;2023-02-28T02:47:33;5.95;;;5.35;;
20369;SDS011;10344;47.592;9.600;2023-02-28T02:50:08;5.68;;;5.18;;
20369;SDS011;10344;47.592;9.600;2023-02-28T02:52:49;6.72;;;6.13;;
20369;SDS011;10344;47.592;9.600;2023-02-28T02:55:21;6.10;;;5.50;;
20369;SDS011;10344;47.592;9.600;2023-02-28T02:57:56;6.65;;;5.75;;
20369;SDS011;10344;47.592;9.600;2023-02-28T03:00:40;5.88;;;5.38;;
20369;SDS011;10344;47.592;9.600;2023-02-28T03:03:11;6.43;;;5.78;;
20369;SDS011;10344;47.592;9.600;2023-02-28T03:05:42;6.25;;;5.53;;
20369;SDS011;10344;47.592;9.600;2023-02-28T03:08:11;6.40;;;5.80;;
20369;SDS011;10344;47.592;9.600;2023-02-28T03:10:43;6.65;;;5.82;;
20369;SDS011;10344;47.592;9.600;2023-02-28T03:24:34;6.90;;;6.10;;
20369;SDS011;10344;47.592;9.600;2023-02-28T03:27:42;6.20;;;5.60;;
20369;SDS011;10344;47.592;9.600;2023-02-28T03:30:27;6.28;;;5.68;;
20369;SDS011;10344;47.592;9.600;2023-02-28T03:33:20;6.85;;;6.15;;
20369;SDS011;10344;47.592;9.600;2023-02-28T03:35:59;6.67;;;6.07;;
20369;SDS011;10344;47.592;9.600;2023-02-28T03:41:06;7.03;;;6.32;;
20369;SDS011;10344;47.592;9.600;2023-02-28T03:43:41;6.75;;;6.15;;
20369;SDS011;10344;47.592;9.600;2023-02-28T03:46:14;6.22;;;5.63;;
20369;SDS011;10344;47.592;9.600;2023-02-28T03:49:48;6.30;;;5.70;;
20369;SDS011;10344;47.592;9.600;2023-02-28T03:51:43;6.28;;;5.68;;
20369;SDS011;10344;47.592;9.600;2023-02-28T03:54:16;6.43;;;5.80;;
20369;SDS011;10344;47.592;9.600;2023-02-28T04:02:03;6.63;;;5.95;;
20369;SDS011;10344;47.592;9.600;2023-02-28T04:04:35;6.63;;;6.03;;
20369;SDS011;10344;47.592;9.600;2023-02-28T04:07:04;6.67;;;6.07;;
20369;SDS011;10344;47.592;9.600;2023-02-28T04:09:32;7.13;;;6.37;;
20369;SDS011;10344;47.592;9.600;2023-02-28T04:11:59;6.85;;;6.25;;
20369;SDS011;10344;47.592;9.600;2023-02-28T04:14:25;7.22;;;6.63;;
20369;SDS011;10344;47.592;9.600;2023-02-28T04:16:51;6.95;;;6.35;;
20369;SDS011;10344;47.592;9.600;2023-02-28T04:19:17;7.55;;;6.85;;
20369;SDS011;10344;47.592;9.600;2023-02-28T04:21:44;6.57;;;5.97;;
20369;SDS011;10344;47.592;9.600;2023-02-28T04:24:13;6.80;;;6.10;;
20369;SDS011;10344;47.592;9.600;2023-02-28T04:26:42;7.70;;;6.90;;
20369;SDS011;10344;47.592;9.600;2023-02-28T04:29:18;7.00;;;5.93;;
20369;SDS011;10344;47.592;9.600;2023-02-28T04:31:46;7.05;;;6.32;;
20369;SDS011;10344;47.592;9.600;2023-02-28T04:34:19;8.23;;;7.43;;
20369;SDS011;10344;47.592;9.600;2023-02-28T04:36:46;7.60;;;6.80;;
20369;SDS011;10344;47.592;9.600;2023-02-28T04:39:21;7.35;;;6.63;;
20369;SDS011;10344;47.592;9.600;2023-02-28T04:41:51;7.68;;;6.65;;
20369;SDS011;10344;47.592;9.600;2023-02-28T04:44:18;6.95;;;6.30;;
20369;SDS011;10344;47.592;9.600;2023-02-28T04:46:45;7.32;;;6.63;;
20369;SDS011;10344;47.592;9.600;2023-02-28T04:49:13;7.32;;;6.63;;
20369;SDS011;10344;47.592;9.600;2023-02-28T04:51:42;6.60;;;6.00;;
20369;SDS011;10344;47.592;9.600;2023-02-28T04:54:11;7.57;;;6.78;;
20369;SDS011;10344;47.592;9.600;2023-02-28T04:56:38;7.00;;;6.30;;
20369;SDS011;10344;47.592;9.600;2023-02-28T04:59:09;6.20;;;5.60;;
20369;SDS011;10344;47.592;9.600;2023-02-28T05:01:39;7.10;;;6.40;;
20369;SDS011;10344;47.592;9.600;2023-02-28T05:04:08;6.97;;;6.28;;
20369;SDS011;10344;47.592;9.600;2023-02-28T05:06:34;7.82;;;7.05;;
20369;SDS011;10344;47.592;9.600;2023-02-28T05:09:00;7.90;;;7.20;;
20369;SDS011;10344;47.592;9.600;2023-02-28T05:11:27;7.55;;;6.75;;
20369;SDS011;10344;47.592;9.600;2023-02-28T05:13:59;8.18;;;7.40;;
20369;SDS011;10344;47.592;9.600;2023-02-28T05:16:35;7.78;;;7.07;;
20369;SDS011;10344;47.592;9.600;2023-02-28T05:19:01;7.57;;;6.88;;
20369;SDS011;10344;47.592;9.600;2023-02-28T05:21:29;7.60;;;6.80;;
20369;SDS011;10344;47.592;9.600;2023-02-28T05:23:58;8.20;;;7.18;;
20369;SDS011;10344;47.592;9.600;2023-02-28T05:26:26;7.55;;;6.85;;
20369;SDS011;10344;47.592;9.600;2023-02-28T05:28:55;7.70;;;6.90;;
20369;SDS011;10344;47.592;9.600;2023-02-28T05:31:21;7.97;;;7.17;;
20369;SDS011;10344;47.592;9.600;2023-02-28T05:33:47;8.40;;;7.13;;
20369;SDS011;10344;47.592;9.600;2023-02-28T05:36:13;7.93;;;7.13;;
20369;SDS011;10344;47.592;9.600;2023-02-28T05:38:39;7.13;;;6.43;;
20369;SDS011;10344;47.592;9.600;2023-02-28T05:41:08;7.13;;;6.40;;
20369;SDS011;10344;47.592;9.600;2023-02-28T05:43:36;7.25;;;6.55;;
20369;SDS011;10344;47.592;9.600;2023-02-28T05:46:05;7.65;;;6.90;;
20369;SDS011;10344;47.592;9.600;2023-02-28T05:48:37;8.00;;;7.20;;
20369;SDS011;10344;47.592;9.600;2023-02-28T05:51:27;8.55;;;7.20;;
20369;SDS011;10344;47.592;9.600;2023-02-28T05:53:53;8.27;;;7.47;;
20369;SDS011;10344;47.592;9.600;2023-02-28T05:56:19;8.50;;;7.60;;
20369;SDS011;10344;47.592;9.600;2023-02-28T05:58:47;8.63;;;7.70;;
20369;SDS011;10344;47.592;9.600;2023-02-28T06:01:36;8.55;;;7.65;;
20369;SDS011;10344;47.592;9.600;2023-02-28T06:04:13;9.07;;;7.85;;
20369;SDS011;10344;47.592;9.600;2023-02-28T06:06:43;8.45;;;7.55;;
20369;SDS011;10344;47.592;9.600;2023-02-28T06:09:09;8.00;;;7.22;;
20369;SDS011;10344;47.592;9.600;2023-02-28T06:11:35;7.88;;;7.03;;
20369;SDS011;10344;47.592;9.600;2023-02-28T06:14:01;8.25;;;7.45;;
20369;SDS011;10344;47.592;9.600;2023-02-28T06:16:28;8.90;;;8.00;;
20369;SDS011;10344;47.592;9.600;2023-02-28T06:18:56;7.88;;;7.07;;
20369;SDS011;10344;47.592;9.600;2023-02-28T06:21:23;7.87;;;7.07;;
20369;SDS011;10344;47.592;9.600;2023-02-28T06:23:49;9.43;;;7.70;;
20369;SDS011;10344;47.592;9.600;2023-02-28T06:26:15;8.30;;;7.50;;
20369;SDS011;10344;47.592;9.600;2023-02-28T06:28:41;8.50;;;7.70;;
20369;SDS011;10344;47.592;9.600;2023-02-28T06:31:10;8.30;;;7.50;;
20369;SDS011;10344;47.592;9.600;2023-02-28T06:33:43;12.48;;;9.70;;
20369;SDS011;10344;47.592;9.600;2023-02-28T06:36:11;12.52;;;9.73;;
20369;SDS011;10344;47.592;9.600;2023-02-28T06:38:38;9.48;;;8.27;;
20369;SDS011;10344;47.592;9.600;2023-02-28T06:41:07;8.95;;;7.10;;
20369;SDS011;10344;47.592;9.600;2023-02-28T06:43:34;10.02;;;8.38;;
20369;SDS011;10344;47.592;9.600;2023-02-28T06:46:08;8.20;;;7.40;;
20369;SDS011;10344;47.592;9.600;2023-02-28T06:48:44;8.05;;;7.25;;
20369;SDS011;10344;47.592;9.600;2023-02-28T06:51:17;8.30;;;7.50;;
20369;SDS011;10344;47.592;9.600;2023-02-28T06:53:49;8.77;;;7.88;;
20369;SDS011;10344;47.592;9.600;2023-02-28T06:56:16;8.10;;;7.30;;
20369;SDS011;10344;47.592;9.600;2023-02-28T06:58:48;7.87;;;7.07;;
20369;SDS011;10344;47.592;9.600;2023-02-28T07:01:16;8.10;;;7.30;;
20369;SDS011;10344;47.592;9.600;2023-02-28T07:03:43;8.68;;;7.78;;
20369;SDS011;10344;47.592;9.600;2023-02-28T07:06:08;8.70;;;7.80;;
20369;SDS011;10344;47.592;9.600;2023-02-28T07:08:34;8.32;;;7.47;;
20369;SDS011;10344;47.592;9.600;2023-02-28T07:11:01;8.50;;;7.60;;
20369;SDS011;10344;47.592;9.600;2023-02-28T07:13:27;7.85;;;7.05;;
20369;SDS011;10344;47.592;9.600;2023-02-28T07:16:00;8.27;;;7.47;;
20369;SDS011;10344;47.592;9.600;2023-02-28T07:18:30;8.57;;;7.68;;
20369;SDS011;10344;47.592;9.600;2023-02-28T07:20:56;8.38;;;7.57;;
20369;SDS011;10344;47.592;9.600;2023-02-28T07:23:22;8.70;;;7.70;;
20369;SDS011;10344;47.592;9.600;2023-02-28T07:25:53;8.57;;;7.63;;
20369;SDS011;10344;47.592;9.600;2023-02-28T07:28:18;8.63;;;7.47;;
20369;SDS011;10344;47.592;9.600;2023-02-28T07:30:44;8.90;;;8.00;;
20369;SDS011;10344;47.592;9.600;2023-02-28T07:33:10;9.10;;;7.93;;
20369;SDS011;10344;47.592;9.600;2023-02-28T07:35:36;8.90;;;8.00;;
20369;SDS011;10344;47.592;9.600;2023-02-28T07:38:01;8.43;;;7.63;;
20369;SDS011;10344;47.592;9.600;2023-02-28T07:40:28;7.80;;;7.00;;
20369;SDS011;10344;47.592;9.600;2023-02-28T07:42:54;8.70;;;7.90;;
20369;SDS011;10344;47.592;9.600;2023-02-28T07:45:19;8.03;;;7.17;;
20369;SDS011;10344;47.592;9.600;2023-02-28T07:47:48;8.50;;;7.70;;
20369;SDS011;10344;47.592;9.600;2023-02-28T07:50:14;8.60;;;7.70;;
20369;SDS011;10344;47.592;9.600;2023-02-28T07:52:42;8.95;;;8.05;;
20369;SDS011;10344;47.592;9.600;2023-02-28T07:55:08;8.52;;;7.63;;
20369;SDS011;10344;47.592;9.600;2023-02-28T07:57:38;8.20;;;7.40;;
20369;SDS011;10344;47.592;9.600;2023-02-28T08:00:08;8.10;;;7.30;;
20369;SDS011;10344;47.592;9.600;2023-02-28T08:02:38;7.93;;;7.13;;
20369;SDS011;10344;47.592;9.600;2023-02-28T08:05:04;8.20;;;7.38;;
20369;SDS011;10344;47.592;9.600;2023-02-28T08:07:33;7.43;;;6.72;;
20369;SDS011;10344;47.592;9.600;2023-02-28T08:10:02;7.60;;;6.90;;
20369;SDS011;10344;47.592;9.600;2023-02-28T08:12:30;7.60;;;6.85;;
20369;SDS011;10344;47.592;9.600;2023-02-28T08:14:56;7.10;;;6.40;;
20369;SDS011;10344;47.592;9.600;2023-02-28T08:17:24;7.55;;;6.80;;
20369;SDS011;10344;47.592;9.600;2023-02-28T08:19:50;8.00;;;7.20;;
20369;SDS011;10344;47.592;9.600;2023-02-28T08:22:16;8.32;;;7.53;;
20369;SDS011;10344;47.592;9.600;2023-02-28T08:24:43;7.70;;;6.90;;
20369;SDS011;10344;47.592;9.600;2023-02-28T08:27:15;7.32;;;6.57;;
20369;SDS011;10344;47.592;9.600;2023-02-28T08:29:42;7.68;;;6.90;;
20369;SDS011;10344;47.592;9.600;2023-02-28T08:32:07;7.93;;;7.17;;
20369;SDS011;10344;47.592;9.600;2023-02-28T08:34:33;7.97;;;7.18;;
20369;SDS011;10344;47.592;9.600;2023-02-28T08:37:05;7.53;;;6.83;;
20369;SDS011;10344;47.592;9.600;2023-02-28T08:39:33;7.70;;;7.00;;
20369;SDS011;10344;47.592;9.600;2023-02-28T08:42:02;7.40;;;6.70;;
20369;SDS011;10344;47.592;9.600;2023-02-28T08:44:28;7.70;;;6.85;;
20369;SDS011;10344;47.592;9.600;2023-02-28T08:46:54;7.20;;;6.50;;
20369;SDS011;10344;47.592;9.600;2023-02-28T08:49:19;7.47;;;6.77;;
20369;SDS011;10344;47.592;9.600;2023-02-28T08:51:53;6.93;;;6.32;;
20369;SDS011;10344;47.592;9.600;2023-02-28T08:54:20;7.30;;;6.60;;
20369;SDS011;10344;47.592;9.600;2023-02-28T08:56:52;7.40;;;6.70;;
20369;SDS011;10344;47.592;9.600;2023-02-28T08:59:17;6.80;;;6.20;;
20369;SDS011;10344;47.592;9.600;2023-02-28T09:01:43;7.03;;;6.32;;
20369;SDS011;10344;47.592;9.600;2023-02-28T09:04:09;7.33;;;6.60;;
20369;SDS011;10344;47.592;9.600;2023-02-28T09:06:38;6.88;;;6.28;;
20369;SDS011;10344;47.592;9.600;2023-02-28T09:09:03;6.38;;;5.78;;
20369;SDS011;10344;47.592;9.600;2023-02-28T09:11:32;6.65;;;6.05;;
20369;SDS011;10344;47.592;9.600;2023-02-28T09:14:02;6.05;;;5.45;;
20369;SDS011;10344;47.592;9.600;2023-02-28T09:16:28;6.20;;;5.60;;
20369;SDS011;10344;47.592;9.600;2023-02-28T09:18:55;6.07;;;5.47;;
20369;SDS011;10344;47.592;9.600;2023-02-28T09:21:28;5.77;;;5.27;;
20369;SDS011;10344;47.592;9.600;2023-02-28T09:23:54;6.20;;;5.65;;
20369;SDS011;10344;47.592;9.600;2023-02-28T09:26:28;5.90;;;5.40;;
20369;SDS011;10344;47.592;9.600;2023-02-28T09:28:54;5.80;;;5.30;;
20369;SDS011;10344;47.592;9.600;2023-02-28T09:31:29;5.90;;;5.40;;
20369;SDS011;10344;47.592;9.600;2023-02-28T09:33:55;5.65;;;5.15;;
20369;SDS011;10344;47.592;9.600;2023-02-28T09:36:25;6.40;;;5.80;;
20369;SDS011;10344;47.592;9.600;2023-02-28T09:38:55;6.00;;;5.50;;
20369;SDS011;10344;47.592;9.600;2023-02-28T09:41:23;6.22;;;5.63;;
20369;SDS011;10344;47.592;9.600;2023-02-28T09:43:55;6.25;;;5.65;;
20369;SDS011;10344;47.592;9.600;2023-02-28T09:48:58;6.63;;;5.95;;
20369;SDS011;10344;47.592;9.600;2023-02-28T09:54:19;6.70;;;6.10;;
20369;SDS011;10344;47.592;9.600;2023-02-28T09:56:56;6.63;;;6.03;;
20369;SDS011;10344;47.592;9.600;2023-02-28T10:02:09;6.65;;;6.05;;
20369;SDS011;10344;47.592;9.600;2023-02-28T10:10:34;6.60;;;6.00;;
20369;SDS011;10344;47.592;9.600;2023-02-28T10:16:37;6.38;;;5.78;;
20369;SDS011;10344;47.592;9.600;2023-02-28T10:19:22;6.28;;;5.68;;
20369;SDS011;10344;47.592;9.600;2023-02-28T10:22:01;7.20;;;6.50;;
20369;SDS011;10344;47.592;9.600;2023-02-28T10:24:53;6.95;;;6.30;;
20369;SDS011;10344;47.592;9.600;2023-02-28T10:27:29;6.95;;;6.25;;
20369;SDS011;10344;47.592;9.600;2023-02-28T10:29:56;7.00;;;6.35;;
20369;SDS011;10344;47.592;9.600;2023-02-28T10:32:28;6.70;;;6.10;;
20369;SDS011;10344;47.592;9.600;2023-02-28T10:37:39;7.13;;;6.43;;
20369;SDS011;10344;47.592;9.600;2023-02-28T10:40:06;7.00;;;6.40;;
20369;SDS011;10344;47.592;9.600;2023-02-28T10:45:40;7.03;;;6.32;;
20369;SDS011;10344;47.592;9.600;2023-02-28T10:53:16;7.60;;;6.90;;
20369;SDS011;10344;47.592;9.600;2023-02-28T10:55:41;7.35;;;6.65;;
20369;SDS011;10344;47.592;9.600;2023-02-28T10:58:22;7.75;;;6.95;;
20369;SDS011;10344;47.592;9.600;2023-02-28T11:00:50;7.28;;;6.57;;
20369;SDS011;10344;47.592;9.600;2023-02-28T11:03:24;7.75;;;7.05;;
20369;SDS011;10344;47.592;9.600;2023-02-28T11:05:55;7.60;;;6.90;;
20369;SDS011;10344;47.592;9.600;2023-02-28T11:08:23;7.80;;;6.95;;
20369;SDS011;10344;47.592;9.600;2023-02-28T11:10:55;7.80;;;6.70;;
20369;SDS011;10344;47.592;9.600;2023-02-28T11:13:31;7.15;;;6.13;;
20369;SDS011;10344;47.592;9.600;2023-02-28T11:16:00;7.82;;;6.78;;
20369;SDS011;10344;47.592;9.600;2023-02-28T11:21:25;7.85;;;6.78;;
20369;SDS011;10344;47.592;9.600;2023-02-28T11:24:46;7.35;;;6.65;;
20369;SDS011;10344;47.592;9.600;2023-02-28T11:26:54;7.50;;;6.75;;
20369;SDS011;10344;47.592;9.600;2023-02-28T11:34:38;8.00;;;7.30;;
20369;SDS011;10344;47.592;9.600;2023-02-28T11:37:05;8.13;;;7.40;;
20369;SDS011;10344;47.592;9.600;2023-02-28T11:39:43;8.30;;;7.50;;
20369;SDS011;10344;47.592;9.600;2023-02-28T11:48:55;8.07;;;7.28;;
20369;SDS011;10344;47.592;9.600;2023-02-28T11:51:01;7.97;;;7.18;;
20369;SDS011;10344;47.592;9.600;2023-02-28T11:53:44;8.07;;;7.28;;
20369;SDS011;10344;47.592;9.600;2023-02-28T11:56:36;7.97;;;7.18;;
20369;SDS011;10344;47.592;9.600;2023-02-28T12:02:06;7.85;;;7.07;;
20369;SDS011;10344;47.592;9.600;2023-02-28T12:05:34;7.97;;;7.27;;
20369;SDS011;10344;47.592;9.600;2023-02-28T12:10:27;8.23;;;7.43;;
20369;SDS011;10344;47.592;9.600;2023-02-28T12:20:59;8.13;;;7.43;;
20369;SDS011;10344;47.592;9.600;2023-02-28T12:24:06;8.88;;;7.97;;
20369;SDS011;10344;47.592;9.600;2023-02-28T12:26:45;8.55;;;7.65;;
20369;SDS011;10344;47.592;9.600;2023-02-28T12:29:27;8.25;;;7.35;;
20369;SDS011;10344;47.592;9.600;2023-02-28T12:34:57;8.17;;;7.37;;
20369;SDS011;10344;47.592;9.600;2023-02-28T12:37:36;8.73;;;7.85;;
20369;SDS011;10344;47.592;9.600;2023-02-28T12:40:45;8.50;;;7.70;;
20369;SDS011;10344;47.592;9.600;2023-02-28T12:43:34;8.13;;;7.43;;
20369;SDS011;10344;47.592;9.600;2023-02-28T12:46:21;8.70;;;7.90;;
20369;SDS011;10344;47.592;9.600;2023-02-28T12:49:05;8.50;;;7.70;;
20369;SDS011;10344;47.592;9.600;2023-02-28T12:58:56;8.77;;;7.88;;
20369;SDS011;10344;47.592;9.600;2023-02-28T13:01:43;8.95;;;7.90;;
20369;SDS011;10344;47.592;9.600;2023-02-28T13:11:00;9.45;;;8.55;;
20369;SDS011;10344;47.592;9.600;2023-02-28T13:13:27;9.57;;;8.67;;
20369;SDS011;10344;47.592;9.600;2023-02-28T13:26:11;9.90;;;8.90;;
20369;SDS011;10344;47.592;9.600;2023-02-28T13:31:19;10.45;;;9.32;;
20369;SDS011;10344;47.592;9.600;2023-02-28T13:39:45;10.52;;;9.52;;
20369;SDS011;10344;47.592;9.600;2023-02-28T13:42:03;10.77;;;9.77;;
20369;SDS011;10344;47.592;9.600;2023-02-28T14:05:37;11.97;;;10.67;;
20369;SDS011;10344;47.592;9.600;2023-02-28T14:46:10;12.10;;;10.90;;
20369;SDS011;10344;47.592;9.600;2023-02-28T14:52:00;12.43;;;11.02;;
20369;SDS011;10344;47.592;9.600;2023-02-28T14:54:41;12.20;;;10.93;;
20369;SDS011;10344;47.592;9.600;2023-02-28T14:57:29;11.82;;;10.63;;
20369;SDS011;10344;47.592;9.600;2023-02-28T15:00:15;11.90;;;10.60;;
20369;SDS011;10344;47.592;9.600;2023-02-28T15:02:42;12.80;;;11.43;;
20369;SDS011;10344;47.592;9.600;2023-02-28T15:08:00;13.75;;;12.25;;
20369;SDS011;10344;47.592;9.600;2023-02-28T15:13:34;13.18;;;11.75;;
20369;SDS011;10344;47.592;9.600;2023-02-28T15:16:22;14.30;;;12.02;;
20369;SDS011;10344;47.592;9.600;2023-02-28T15:18:50;12.98;;;11.55;;
20369;SDS011;10344;47.592;9.600;2023-02-28T15:24:08;13.70;;;12.30;;
20369;SDS011;10344;47.592;9.600;2023-02-28T15:26:52;13.68;;;12.25;;
20369;SDS011;10344;47.592;9.600;2023-02-28T15:29:22;14.95;;;12.40;;
20369;SDS011;10344;47.592;9.600;2023-02-28T15:34:40;14.50;;;12.32;;
20369;SDS011;10344;47.592;9.600;2023-02-28T15:37:27;13.80;;;11.70;;
20369;SDS011;10344;47.592;9.600;2023-02-28T15:40:17;14.80;;;13.02;;
20369;SDS011;10344;47.592;9.600;2023-02-28T15:46:03;12.70;;;11.30;;
20369;SDS011;10344;47.592;9.600;2023-02-28T15:48:36;13.65;;;11.93;;
20369;SDS011;10344;47.592;9.600;2023-02-28T15:51:08;15.45;;;12.40;;
20369;SDS011;10344;47.592;9.600;2023-02-28T15:53:48;13.65;;;12.00;;
20369;SDS011;10344;47.592;9.600;2023-02-28T15:56:23;13.98;;;12.13;;
20369;SDS011;10344;47.592;9.600;2023-02-28T15:58:56;14.05;;;12.55;;
20369;SDS011;10344;47.592;9.600;2023-02-28T16:01:25;16.00;;;12.93;;
20369;SDS011;10344;47.592;9.600;2023-02-28T16:04:11;14.90;;;12.55;;
20369;SDS011;10344;47.592;9.600;2023-02-28T16:06:47;14.15;;;12.52;;
20369;SDS011;10344;47.592;9.600;2023-02-28T16:09:32;14.65;;;12.48;;
20369;SDS011;10344;47.592;9.600;2023-02-28T16:12:01;14.70;;;12.40;;
20369;SDS011;10344;47.592;9.600;2023-02-28T16:14:31;15.38;;;13.20;;
20369;SDS011;10344;47.592;9.600;2023-02-28T16:17:06;15.30;;;12.88;;
20369;SDS011;10344;47.592;9.600;2023-02-28T16:19:46;15.57;;;12.90;;
20369;SDS011;10344;47.592;9.600;2023-02-28T16:22:12;14.48;;;12.30;;
20369;SDS011;10344;47.592;9.600;2023-02-28T16:24:42;15.02;;;13.02;;
20369;SDS011;10344;47.592;9.600;2023-02-28T16:29:57;15.05;;;12.70;;
20369;SDS011;10344;47.592;9.600;2023-02-28T16:32:23;14.70;;;12.48;;
20369;SDS011;10344;47.592;9.600;2023-02-28T16:34:48;14.47;;;12.97;;
20369;SDS011;10344;47.592;9.600;2023-02-28T16:37:15;14.75;;;12.55;;
20369;SDS011;10344;47.592;9.600;2023-02-28T16:39:44;15.60;;;12.73;;
20369;SDS011;10344;47.592;9.600;2023-02-28T16:42:10;14.20;;;12.23;;
20369;SDS011;10344;47.592;9.600;2023-02-28T16:44:47;14.88;;;12.82;;
20369;SDS011;10344;47.592;9.600;2023-02-28T16:47:13;14.60;;;12.18;;
20369;SDS011;10344;47.592;9.600;2023-02-28T16:49:42;14.38;;;12.55;;
20369;SDS011;10344;47.592;9.600;2023-02-28T16:52:11;15.32;;;12.68;;
20369;SDS011;10344;47.592;9.600;2023-02-28T16:54:37;17.48;;;14.20;;
20369;SDS011;10344;47.592;9.600;2023-02-28T16:57:04;17.55;;;14.05;;
20369;SDS011;10344;47.592;9.600;2023-02-28T16:59:34;15.73;;;13.63;;
20369;SDS011;10344;47.592;9.600;2023-02-28T17:01:59;16.20;;;13.35;;
20369;SDS011;10344;47.592;9.600;2023-02-28T17:04:25;15.88;;;13.52;;
20369;SDS011;10344;47.592;9.600;2023-02-28T17:06:51;16.35;;;14.05;;
20369;SDS011;10344;47.592;9.600;2023-02-28T17:09:19;16.35;;;13.80;;
20369;SDS011;10344;47.592;9.600;2023-02-28T17:11:48;17.87;;;14.80;;
20369;SDS011;10344;47.592;9.600;2023-02-28T17:14:14;18.45;;;15.35;;
20369;SDS011;10344;47.592;9.600;2023-02-28T17:16:40;16.30;;;13.48;;
20369;SDS011;10344;47.592;9.600;2023-02-28T17:19:11;16.65;;;13.75;;
20369;SDS011;10344;47.592;9.600;2023-02-28T17:21:41;17.47;;;14.30;;
20369;SDS011;10344;47.592;9.600;2023-02-28T17:24:07;15.32;;;13.55;;
20369;SDS011;10344;47.592;9.600;2023-02-28T17:26:34;15.73;;;13.68;;
20369;SDS011;10344;47.592;9.600;2023-02-28T17:29:11;16.65;;;13.65;;
20369;SDS011;10344;47.592;9.600;2023-02-28T17:31:43;14.80;;;12.90;;
20369;SDS011;10344;47.592;9.600;2023-02-28T17:34:09;15.20;;;13.23;;
20369;SDS011;10344;47.592;9.600;2023-02-28T17:36:35;15.60;;;13.35;;
20369;SDS011;10344;47.592;9.600;2023-02-28T17:39:02;16.38;;;13.40;;
20369;SDS011;10344;47.592;9.600;2023-02-28T17:41:35;14.90;;;12.73;;
20369;SDS011;10344;47.592;9.600;2023-02-28T17:44:01;16.13;;;14.18;;
20369;SDS011;10344;47.592;9.600;2023-02-28T17:46:32;15.83;;;13.43;;
20369;SDS011;10344;47.592;9.600;2023-02-28T17:48:58;15.73;;;13.25;;
20369;SDS011;10344;47.592;9.600;2023-02-28T17:51:24;17.08;;;14.40;;
20369;SDS011;10344;47.592;9.600;2023-02-28T17:54:00;16.83;;;13.93;;
20369;SDS011;10344;47.592;9.600;2023-02-28T17:56:25;15.48;;;13.15;;
20369;SDS011;10344;47.592;9.600;2023-02-28T17:58:52;15.20;;;12.65;;
20369;SDS011;10344;47.592;9.600;2023-02-28T18:01:22;15.63;;;12.98;;
20369;SDS011;10344;47.592;9.600;2023-02-28T18:03:52;14.75;;;12.85;;
20369;SDS011;10344;47.592;9.600;2023-02-28T18:06:25;14.77;;;12.95;;
20369;SDS011;10344;47.592;9.600;2023-02-28T18:09:19;13.43;;;12.02;;
20369;SDS011;10344;47.592;9.600;2023-02-28T18:11:51;14.57;;;13.00;;
20369;SDS011;10344;47.592;9.600;2023-02-28T18:14:18;14.63;;;12.50;;
20369;SDS011;10344;47.592;9.600;2023-02-28T18:16:45;14.50;;;12.80;;
20369;SDS011;10344;47.592;9.600;2023-02-28T18:19:14;14.43;;;12.85;;
20369;SDS011;10344;47.592;9.600;2023-02-28T18:21:45;14.90;;;12.60;;
20369;SDS011;10344;47.592;9.600;2023-02-28T18:24:19;14.73;;;12.60;;
20369;SDS011;10344;47.592;9.600;2023-02-28T18:26:46;15.45;;;13.05;;
20369;SDS011;10344;47.592;9.600;2023-02-28T18:29:20;16.73;;;13.13;;
20369;SDS011;10344;47.592;9.600;2023-02-28T18:31:48;14.23;;;12.40;;
20369;SDS011;10344;47.592;9.600;2023-02-28T18:34:15;18.13;;;14.55;;
20369;SDS011;10344;47.592;9.600;2023-02-28T18:36:40;15.65;;;12.25;;
20369;SDS011;10344;47.592;9.600;2023-02-28T18:39:07;15.07;;;12.85;;
20369;SDS011;10344;47.592;9.600;2023-02-28T18:41:33;14.65;;;12.38;;
20369;SDS011;10344;47.592;9.600;2023-02-28T18:44:03;16.42;;;14.18;;
20369;SDS011;10344;47.592;9.600;2023-02-28T18:46:29;14.63;;;12.85;;